Airfield :
LOGIN :

Register | Disclaimer

   EN    FR    IT 

 










Legend :    VFR   Marginal VFR   IFR   Intensive IFR   Very Intensive IFR
Visi :
Ceiling :
>= 8 km
>= 3000ft
5 to 8 km
1000 to 3000 ft
1500m to 5 km
500 to 1000 ft
800 to 1500m
200 to 500 ft
< 800m
< 200 ft
Symbols :   Thunderstorms  Fog  Heavy snow  Heavy precipitations  Wind > 20 kt
SIGMETs :     Misc.  Thunderstorms  Icing  Turbulence  Mountain Waves  Volcanic Ashes







- Airport Elevation : 290 ft
- IATA code : ACI
- Download approach charts


EGJA - Alderney

CURRENT METAR :
  • 211220Z 35011KT CAVOK 15/// Q1027

EXPIRED METARs :
  • 211150Z 35009KT 9999 FEW015 15/// Q1027
  • 211120Z 35012KT 9999 FEW015 15/// Q1027
  • 211050Z 36010KT 9999 FEW015 15/// Q1027
  • 211020Z 36008KT 9999 FEW015 14/// Q1026
  • 210950Z 36012KT 9999 FEW015 14/// Q1026

TAF TAF EGJA
Valid from the 21 at 12:00 until the 21 at 19:00 UTC


211100Z 2112/2119 35010KT 9999 FEW016
No reported NOTAMs for that airfield.



MET'MAP, your aeronautical weather chart ! - Copyright ORBIFLY December 2007 - Disclaimer

ORBIFLY MET'MAP TEAM :

Programming & Development : Alexandra Zaïnal
Concept & Development : Baudouin d'Aumeries
Co-Development & Prog : Marc-Olivier Méhu
Technical & hardware support : Manuel Goepfert

Contact : metmap@orbifly.com




SOURCES & CREDITS :

   NOAA